createdAt,value
2017-09-18T00:01:58.823Z,12.12
2017-09-18T00:07:00.770Z,11.96
2017-09-18T00:12:02.755Z,12.11
2017-09-18T00:17:04.695Z,12.12
2017-09-18T00:22:06.673Z,12.22
2017-09-18T00:27:08.680Z,12.18
2017-09-18T00:32:10.657Z,12.12
2017-09-18T00:37:13.454Z,12.14
2017-09-18T00:42:15.576Z,12.15
2017-09-18T00:47:18.480Z,11.99
2017-09-18T00:52:21.467Z,11.80
2017-09-18T00:57:23.479Z,11.99
2017-09-18T01:02:26.229Z,12.05
2017-09-18T01:07:28.217Z,12.07
2017-09-18T01:12:30.313Z,12.09
2017-09-18T01:17:33.053Z,12.22
2017-09-18T01:22:35.101Z,12.31
2017-09-18T01:27:37.091Z,12.38
2017-09-18T01:32:39.822Z,12.43
2017-09-18T01:37:41.828Z,12.45
2017-09-18T01:42:43.791Z,12.43
2017-09-18T01:47:45.811Z,12.43
2017-09-18T01:52:47.828Z,12.48
2017-09-18T01:57:49.812Z,12.56
2017-09-18T02:02:51.865Z,12.51
2017-09-18T02:07:54.925Z,12.48
2017-09-18T02:12:56.880Z,12.46
2017-09-18T02:17:59.550Z,12.33
2017-09-18T02:23:01.566Z,12.25
2017-09-18T02:28:03.514Z,12.29
2017-09-18T02:33:05.526Z,12.25
2017-09-18T02:38:07.526Z,12.23
2017-09-18T02:43:10.300Z,12.15
2017-09-18T02:48:12.348Z,12.02
2017-09-18T02:53:15.041Z,12.03
2017-09-18T02:58:17.031Z,12.00
2017-09-18T03:03:19.044Z,12.00
2017-09-18T03:08:21.046Z,11.98
2017-09-18T03:13:23.763Z,11.96
2017-09-18T03:18:25.772Z,11.90
2017-09-18T03:23:28.530Z,11.79
2017-09-18T03:28:35.720Z,11.74
2017-09-18T03:33:39.015Z,11.78
2017-09-18T03:38:41.160Z,11.79
2017-09-18T03:43:43.256Z,11.80
2017-09-18T03:48:45.265Z,11.82
2017-09-18T03:53:47.248Z,11.80
2017-09-18T03:58:49.362Z,11.84
2017-09-18T04:03:51.427Z,11.85
2017-09-18T04:08:54.496Z,11.86
2017-09-18T04:13:56.535Z,11.88
2017-09-18T04:18:58.650Z,12.01
2017-09-18T04:24:00.683Z,12.12
2017-09-18T04:29:04.386Z,12.19
2017-09-18T04:34:07.493Z,12.22
2017-09-18T04:39:09.486Z,12.29
2017-09-18T04:44:11.455Z,12.30
2017-09-18T04:49:13.845Z,12.38
2017-09-18T04:54:15.906Z,12.41
2017-09-18T04:59:17.933Z,12.51
2017-09-18T05:04:19.973Z,12.54
2017-09-18T05:09:23.923Z,12.47
2017-09-18T05:14:26.887Z,12.52
2017-09-18T05:19:28.816Z,12.61
2017-09-18T05:24:30.844Z,12.64
2017-09-18T05:29:33.582Z,12.69
2017-09-18T05:34:36.350Z,12.70
2017-09-18T05:39:38.266Z,12.68
2017-09-18T05:44:40.481Z,12.61
2017-09-18T05:49:42.479Z,12.60
2017-09-18T05:54:51.459Z,12.64
2017-09-18T05:59:59.612Z,12.66
2017-09-18T06:05:02.327Z,12.75
2017-09-18T06:10:05.534Z,12.99
2017-09-18T06:15:08.532Z,13.30
2017-09-18T06:20:10.737Z,13.58
2017-09-18T06:25:12.719Z,13.78
2017-09-18T06:30:14.782Z,13.92
2017-09-18T06:35:17.588Z,13.95
2017-09-18T06:40:20.668Z,14.15
2017-09-18T06:45:22.673Z,14.32
2017-09-18T06:50:25.590Z,14.56
2017-09-18T06:55:28.185Z,14.91
2017-09-18T07:00:30.467Z,15.13
2017-09-18T07:05:32.681Z,15.26
2017-09-18T07:10:35.245Z,15.58
2017-09-18T07:15:37.420Z,15.67
2017-09-18T07:20:39.594Z,15.48
2017-09-18T07:25:42.348Z,15.30
2017-09-18T07:30:44.522Z,14.93
2017-09-18T07:35:46.990Z,14.67
2017-09-18T07:40:50.153Z,14.63
2017-09-18T07:45:52.681Z,14.71
2017-09-18T07:50:55.471Z,14.82
2017-09-18T07:55:59.527Z,14.77
2017-09-18T08:01:01.950Z,14.91
2017-09-18T08:06:06.668Z,15.09
2017-09-18T08:11:12.115Z,15.21
2017-09-18T08:16:14.617Z,15.34
2017-09-18T08:21:19.229Z,15.54
2017-09-18T08:26:23.105Z,15.76
2017-09-18T08:31:26.099Z,15.94
2017-09-18T08:36:32.780Z,16.08
2017-09-18T08:41:35.182Z,16.23
2017-09-18T08:46:37.577Z,16.31
2017-09-18T08:51:39.525Z,16.59
2017-09-18T08:56:41.690Z,16.82
2017-09-18T09:01:43.654Z,16.97
2017-09-18T09:06:45.697Z,17.16
2017-09-18T09:11:48.165Z,17.51
2017-09-18T09:16:51.440Z,17.65
2017-09-18T09:21:55.948Z,17.77
2017-09-18T09:26:57.890Z,17.55
2017-09-18T09:32:02.491Z,17.32
2017-09-18T09:37:06.274Z,17.27
2017-09-18T09:42:08.295Z,17.47
2017-09-18T09:47:11.383Z,17.65
2017-09-18T09:52:13.411Z,17.80
2017-09-18T09:57:18.218Z,17.84
2017-09-18T10:02:20.188Z,17.90
2017-09-18T10:07:22.139Z,17.85
2017-09-18T10:12:24.906Z,17.73
2017-09-18T10:17:26.830Z,18.00
2017-09-18T10:22:28.923Z,18.58
2017-09-18T10:27:33.257Z,19.00
2017-09-18T10:32:35.218Z,19.15
2017-09-18T10:37:37.203Z,19.04
2017-09-18T10:42:39.217Z,18.91
2017-09-18T10:47:41.212Z,19.19
2017-09-18T10:52:43.233Z,19.58
2017-09-18T10:57:45.539Z,19.72
2017-09-18T11:02:47.556Z,19.95
2017-09-18T11:07:49.542Z,19.80
2017-09-18T11:12:51.464Z,19.49
2017-09-18T11:17:54.419Z,19.80
2017-09-18T11:22:57.557Z,19.90
2017-09-18T11:27:59.967Z,19.73
2017-09-18T11:33:01.995Z,19.63
2017-09-18T11:38:05.615Z,19.69
2017-09-18T11:43:07.620Z,19.31
2017-09-18T11:48:09.674Z,18.88
2017-09-18T11:53:12.674Z,18.52
2017-09-18T11:58:14.675Z,17.98
2017-09-18T12:03:16.788Z,17.63
2017-09-18T12:08:18.983Z,17.63
2017-09-18T12:13:21.007Z,17.82
2017-09-18T12:18:22.968Z,18.15
2017-09-18T12:23:24.961Z,18.45
2017-09-18T12:28:27.323Z,18.58
2017-09-18T12:33:36.210Z,18.80
2017-09-18T12:38:38.200Z,18.93
2017-09-18T12:43:40.610Z,19.17
2017-09-18T12:48:42.651Z,19.72
2017-09-18T12:53:45.052Z,19.82
2017-09-18T12:58:47.083Z,19.84
2017-09-18T13:03:49.834Z,19.87
2017-09-18T13:08:51.782Z,20.09
2017-09-18T13:13:53.741Z,20.42
2017-09-18T13:18:55.755Z,20.39
2017-09-18T13:23:57.954Z,20.63
2017-09-18T13:29:00.653Z,20.59
2017-09-18T13:34:02.843Z,20.02
2017-09-18T13:39:04.945Z,20.27
2017-09-18T13:44:06.914Z,19.96
2017-09-18T13:49:08.920Z,19.85
2017-09-18T13:54:12.655Z,19.96
2017-09-18T13:59:14.600Z,20.19
2017-09-18T14:04:16.563Z,20.10
2017-09-18T14:09:18.522Z,19.82
2017-09-18T14:14:20.474Z,19.60
2017-09-18T14:19:23.161Z,19.44
2017-09-18T14:24:25.327Z,19.32
2017-09-18T14:29:27.296Z,19.21
2017-09-18T14:34:29.266Z,19.23
2017-09-18T14:39:32.512Z,19.15
2017-09-18T14:44:34.479Z,19.23
2017-09-18T14:49:36.909Z,19.00
2017-09-18T14:54:38.894Z,18.83
2017-09-18T14:59:40.851Z,18.64
2017-09-18T15:04:43.018Z,18.96
2017-09-18T15:09:45.024Z,19.83
2017-09-18T15:14:47.031Z,20.19
2017-09-18T15:19:48.997Z,19.63
2017-09-18T15:24:50.980Z,19.34
2017-09-18T15:29:52.937Z,19.58
2017-09-18T15:34:55.157Z,19.97
2017-09-18T15:39:57.151Z,20.08
2017-09-18T15:44:59.914Z,20.03
2017-09-18T15:50:02.051Z,19.81
2017-09-18T15:55:04.784Z,19.78
2017-09-18T16:00:06.846Z,19.47
2017-09-18T16:05:09.217Z,18.98
2017-09-18T16:10:11.217Z,18.68
2017-09-18T16:15:13.214Z,18.66
2017-09-18T16:20:15.226Z,18.76
2017-09-18T16:25:17.288Z,18.79
2017-09-18T16:30:19.299Z,18.68
2017-09-18T16:35:22.145Z,18.52
2017-09-18T16:40:24.258Z,18.29
2017-09-18T16:45:26.554Z,18.16
2017-09-18T16:50:28.633Z,18.09
2017-09-18T16:55:31.256Z,17.93
2017-09-18T17:00:34.744Z,17.91
2017-09-18T17:05:39.688Z,17.72
2017-09-18T17:10:42.022Z,17.51
2017-09-18T17:15:44.518Z,17.30
2017-09-18T17:20:47.797Z,17.08
2017-09-18T17:25:49.920Z,16.95
2017-09-18T17:30:58.160Z,16.72
2017-09-18T17:36:00.159Z,16.61
2017-09-18T17:41:03.207Z,16.29
2017-09-18T17:46:06.813Z,16.62
2017-09-18T17:51:09.629Z,16.72
2017-09-18T17:56:11.614Z,16.59
2017-09-18T18:01:13.631Z,16.62
2017-09-18T18:06:16.017Z,16.71
2017-09-18T18:11:18.189Z,16.63
2017-09-18T18:16:20.439Z,16.49
2017-09-18T18:21:23.012Z,16.36
2017-09-18T18:26:24.963Z,16.26
2017-09-18T18:31:28.435Z,16.09
2017-09-18T18:36:30.890Z,16.03
2017-09-18T18:41:32.915Z,15.80
2017-09-18T18:46:34.879Z,15.71
2017-09-18T18:51:38.416Z,15.62
2017-09-18T18:56:40.446Z,15.50
2017-09-18T19:01:42.563Z,15.47
2017-09-18T19:06:44.603Z,15.26
2017-09-18T19:11:49.681Z,15.17
2017-09-18T19:16:55.719Z,15.00
2017-09-18T19:22:00.732Z,14.88
2017-09-18T19:27:02.805Z,15.02
2017-09-18T19:32:07.173Z,15.15
2017-09-18T19:37:09.507Z,15.44
2017-09-18T19:42:12.371Z,15.51
2017-09-18T19:47:14.854Z,15.54
2017-09-18T19:52:17.138Z,15.53
2017-09-18T19:57:19.465Z,15.57
2017-09-18T20:02:21.804Z,15.55
2017-09-18T20:07:24.307Z,15.62
2017-09-18T20:12:26.829Z,15.63
2017-09-18T20:17:30.014Z,15.74
2017-09-18T20:22:32.289Z,15.81
2017-09-18T20:27:34.702Z,15.83
2017-09-18T20:32:36.723Z,15.86
2017-09-18T20:37:39.238Z,15.89
2017-09-18T20:42:41.288Z,15.93
2017-09-18T20:47:43.374Z,15.94
2017-09-18T20:52:45.444Z,15.94
2017-09-18T20:57:47.416Z,15.92
2017-09-18T21:02:50.203Z,15.89
2017-09-18T21:07:52.968Z,15.85
2017-09-18T21:12:55.021Z,15.87
2017-09-18T21:17:56.974Z,15.88
2017-09-18T21:22:59.130Z,15.88
2017-09-18T21:28:01.189Z,15.83
2017-09-18T21:33:03.394Z,15.79
2017-09-18T21:38:05.379Z,15.85
2017-09-18T21:43:08.068Z,15.88
2017-09-18T21:48:10.068Z,15.86
2017-09-18T21:53:12.063Z,15.86
2017-09-18T21:58:14.062Z,15.82
2017-09-18T22:03:18.032Z,15.80
2017-09-18T22:08:20.334Z,15.81
2017-09-18T22:13:22.668Z,15.81
2017-09-18T22:18:24.663Z,15.80
2017-09-18T22:23:26.650Z,15.76
2017-09-18T22:28:28.675Z,15.71
2017-09-18T22:33:30.884Z,15.72
2017-09-18T22:38:33.702Z,15.72
2017-09-18T22:43:35.675Z,15.72
2017-09-18T22:48:37.663Z,15.68
2017-09-18T22:53:40.475Z,15.63
2017-09-18T22:58:42.587Z,15.61
2017-09-18T23:03:46.112Z,15.57
2017-09-18T23:08:48.188Z,15.51
2017-09-18T23:13:53.504Z,15.50
2017-09-18T23:18:55.456Z,15.44
2017-09-18T23:23:57.456Z,15.41
2017-09-18T23:28:59.539Z,15.40
2017-09-18T23:34:01.590Z,15.38
2017-09-18T23:39:03.895Z,15.30
2017-09-18T23:44:05.943Z,15.31
2017-09-18T23:49:08.657Z,15.28
2017-09-18T23:54:11.386Z,15.24
2017-09-18T23:59:13.375Z,15.21
